Terminal Aerodrome Forecast
Issued by NWS

Home | Current Version | Previous Version | Graphics & Text | Print | Product List | Glossary On
Versions: 1 2 3 4 5 6 7 8 9 10 11 12 13 14 15 16 17
000
FTUS43 KTOP 270300 AAA
TAFFOE
TAF AMD
KFOE 270315Z 2703/2724 02013G24KT 6SM -RA BR SCT015 OVC030
      TEMPO 2704/2706 3SM -RASN OVC015
     FM270600 01012KT 5SM -RASN BR OVC012
     FM270900 36006KT 6SM BR BKN010
     FM271400 01006KT P6SM SCT025=

USA.gov is the U.S. government's official web portal to all federal, state and local government web resources and services.